Glide, Oregon
Current Conditions -  °F | °C
As of 11:53 PM on Friday 24 Oct 2014 (Local Time) from KRBG Reporting Station
Haze Haze  
Wind Chill: 55°   Ceiling: 500
Heat Index: 55°   Visibility: 3mi
Dew Point: 53°   Wind: 5mph
Humidity: 93%   Direction: 20°NNE
Pressure: 29.64"   Gusts: NA
Location:  43.3°N, 123.1°W
Report Text: KRBG 250653Z AUTO 02004KT 3SM BR OVC005 13/12 A2964 RMK AO2 SLP037 T01280117 $
Loading
Personal Weather Stations






























Interactive Weather Map
Tropical Storm Tracking
New forecast layout! Learn more

10-Day Weather Forecast

Advertisements
Track Severe Weather on mobile